sensor_id;sensor_type;location;lat;lon;timestamp;pressure;altitude;pressure_sealevel;temperature;humidity
13553;BME280;6847;48.830;9.116;2023-08-06T00:01:57;97177.56;;;19.11;75.82
13553;BME280;6847;48.830;9.116;2023-08-06T00:04:28;97172.88;;;19.12;75.59
13553;BME280;6847;48.830;9.116;2023-08-06T00:06:56;97175.63;;;19.12;75.73
13553;BME280;6847;48.830;9.116;2023-08-06T00:09:28;97172.88;;;19.12;75.37
13553;BME280;6847;48.830;9.116;2023-08-06T00:11:55;97166.50;;;19.08;75.14
13553;BME280;6847;48.830;9.116;2023-08-06T00:14:21;96978.72;;;17.78;75.12
13553;BME280;6847;48.830;9.116;2023-08-06T00:16:54;97151.72;;;18.84;75.50
13553;BME280;6847;48.830;9.116;2023-08-06T00:19:20;97153.81;;;18.75;75.47
13553;BME280;6847;48.830;9.116;2023-08-06T00:21:47;97152.81;;;18.68;75.22
13553;BME280;6847;48.830;9.116;2023-08-06T00:24:14;97155.72;;;18.59;75.47
13553;BME280;6847;48.830;9.116;2023-08-06T00:26:41;97152.72;;;18.52;75.43
13553;BME280;6847;48.830;9.116;2023-08-06T00:29:12;97151.38;;;18.46;75.39
13553;BME280;6847;48.830;9.116;2023-08-06T00:31:42;97150.25;;;18.35;75.23
13553;BME280;6847;48.830;9.116;2023-08-06T00:34:10;97154.03;;;18.30;75.55
13553;BME280;6847;48.830;9.116;2023-08-06T00:36:40;97149.56;;;18.26;75.26
13553;BME280;6847;48.830;9.116;2023-08-06T00:39:07;97153.69;;;18.20;75.57
13553;BME280;6847;48.830;9.116;2023-08-06T00:41:37;97004.75;;;17.23;75.36
13553;BME280;6847;48.830;9.116;2023-08-06T00:44:04;97129.53;;;17.97;75.54
13553;BME280;6847;48.830;9.116;2023-08-06T00:46:31;97148.44;;;18.02;75.00
13553;BME280;6847;48.830;9.116;2023-08-06T00:48:58;97138.53;;;17.98;75.13
13553;BME280;6847;48.830;9.116;2023-08-06T00:51:33;97142.75;;;17.95;75.16
13553;BME280;6847;48.830;9.116;2023-08-06T00:54:06;97084.78;;;17.57;75.55
13553;BME280;6847;48.830;9.116;2023-08-06T00:56:38;97129.97;;;17.87;75.51
13553;BME280;6847;48.830;9.116;2023-08-06T00:59:05;97125.19;;;17.84;75.45
13553;BME280;6847;48.830;9.116;2023-08-06T01:01:32;97124.28;;;17.80;75.52
13553;BME280;6847;48.830;9.116;2023-08-06T01:03:58;97116.28;;;17.75;75.48
13553;BME280;6847;48.830;9.116;2023-08-06T01:06:35;97120.53;;;17.72;75.56
13553;BME280;6847;48.830;9.116;2023-08-06T01:09:13;97118.34;;;17.66;75.19
13553;BME280;6847;48.830;9.116;2023-08-06T01:11:53;97107.28;;;17.62;75.25
13553;BME280;6847;48.830;9.116;2023-08-06T01:14:25;97114.88;;;17.57;75.44
13553;BME280;6847;48.830;9.116;2023-08-06T01:16:54;97107.00;;;17.55;75.40
13553;BME280;6847;48.830;9.116;2023-08-06T01:19:21;97087.50;;;17.45;75.54
13553;BME280;6847;48.830;9.116;2023-08-06T01:21:52;97053.75;;;17.28;76.05
13553;BME280;6847;48.830;9.116;2023-08-06T01:24:19;97045.22;;;17.30;75.82
13553;BME280;6847;48.830;9.116;2023-08-06T01:26:48;97113.22;;;17.77;75.69
13553;BME280;6847;48.830;9.116;2023-08-06T01:29:23;97109.47;;;17.81;75.93
13553;BME280;6847;48.830;9.116;2023-08-06T01:32:05;96863.88;;;16.32;75.48
13553;BME280;6847;48.830;9.116;2023-08-06T01:34:43;97111.16;;;17.86;75.37
13553;BME280;6847;48.830;9.116;2023-08-06T01:37:13;96966.78;;;16.97;75.70
13553;BME280;6847;48.830;9.116;2023-08-06T01:39:40;97102.38;;;17.80;75.76
13553;BME280;6847;48.830;9.116;2023-08-06T01:42:09;97038.94;;;17.29;75.60
13553;BME280;6847;48.830;9.116;2023-08-06T01:44:36;97103.06;;;17.65;75.64
13553;BME280;6847;48.830;9.116;2023-08-06T01:47:03;97094.13;;;17.56;75.74
13553;BME280;6847;48.830;9.116;2023-08-06T01:49:35;97095.25;;;17.55;76.02
13553;BME280;6847;48.830;9.116;2023-08-06T01:52:02;97093.66;;;17.54;75.75
13553;BME280;6847;48.830;9.116;2023-08-06T01:54:29;97097.56;;;17.53;76.04
13553;BME280;6847;48.830;9.116;2023-08-06T01:56:56;97095.03;;;17.48;75.61
13553;BME280;6847;48.830;9.116;2023-08-06T01:59:23;97061.06;;;17.36;76.14
13553;BME280;6847;48.830;9.116;2023-08-06T02:01:50;97079.28;;;17.45;75.70
13553;BME280;6847;48.830;9.116;2023-08-06T02:04:25;97072.94;;;17.41;76.01
13553;BME280;6847;48.830;9.116;2023-08-06T02:06:51;97072.78;;;17.37;75.74
13553;BME280;6847;48.830;9.116;2023-08-06T02:09:18;97074.50;;;17.29;75.70
13553;BME280;6847;48.830;9.116;2023-08-06T02:11:49;97009.28;;;16.83;75.55
13553;BME280;6847;48.830;9.116;2023-08-06T02:14:15;97042.66;;;17.00;75.84
13553;BME280;6847;48.830;9.116;2023-08-06T02:16:43;97058.41;;;17.16;76.04
13553;BME280;6847;48.830;9.116;2023-08-06T02:19:12;97052.84;;;17.12;76.27
13553;BME280;6847;48.830;9.116;2023-08-06T02:21:39;97050.09;;;17.12;76.02
13553;BME280;6847;48.830;9.116;2023-08-06T02:24:08;97046.91;;;17.10;76.22
13553;BME280;6847;48.830;9.116;2023-08-06T02:26:35;96796.84;;;15.44;75.73
13553;BME280;6847;48.830;9.116;2023-08-06T02:29:09;97043.84;;;17.12;76.09
13553;BME280;6847;48.830;9.116;2023-08-06T02:31:36;96905.03;;;16.27;76.09
13553;BME280;6847;48.830;9.116;2023-08-06T02:34:11;97032.75;;;17.08;75.96
13553;BME280;6847;48.830;9.116;2023-08-06T02:36:38;97029.81;;;17.13;76.11
13553;BME280;6847;48.830;9.116;2023-08-06T02:39:06;96982.84;;;16.87;75.86
13553;BME280;6847;48.830;9.116;2023-08-06T02:41:34;97031.84;;;17.16;75.55
13553;BME280;6847;48.830;9.116;2023-08-06T02:44:01;97011.56;;;17.05;75.75
13553;BME280;6847;48.830;9.116;2023-08-06T02:46:31;97020.44;;;17.14;75.84
13553;BME280;6847;48.830;9.116;2023-08-06T02:48:58;97022.75;;;17.12;75.65
13553;BME280;6847;48.830;9.116;2023-08-06T02:51:27;96998.34;;;16.95;75.12
13553;BME280;6847;48.830;9.116;2023-08-06T02:53:57;97022.63;;;17.09;75.04
13553;BME280;6847;48.830;9.116;2023-08-06T02:56:24;97009.28;;;17.07;74.92
13553;BME280;6847;48.830;9.116;2023-08-06T02:58:54;97008.81;;;17.05;75.02
13553;BME280;6847;48.830;9.116;2023-08-06T03:01:22;97005.28;;;17.05;74.64
13553;BME280;6847;48.830;9.116;2023-08-06T03:03:52;97005.28;;;17.05;74.70
13553;BME280;6847;48.830;9.116;2023-08-06T03:06:21;97000.63;;;17.05;74.88
13553;BME280;6847;48.830;9.116;2023-08-06T03:08:48;96999.16;;;17.08;75.19
13553;BME280;6847;48.830;9.116;2023-08-06T03:11:15;96939.44;;;16.73;74.95
13553;BME280;6847;48.830;9.116;2023-08-06T03:13:46;96999.75;;;17.13;74.91
13553;BME280;6847;48.830;9.116;2023-08-06T03:16:12;96993.22;;;17.18;75.57
13553;BME280;6847;48.830;9.116;2023-08-06T03:18:41;96989.56;;;17.26;75.41
13553;BME280;6847;48.830;9.116;2023-08-06T03:21:16;96993.00;;;17.35;75.58
13553;BME280;6847;48.830;9.116;2023-08-06T03:23:43;96994.03;;;17.43;75.16
13553;BME280;6847;48.830;9.116;2023-08-06T03:26:15;96997.31;;;17.48;75.22
13553;BME280;6847;48.830;9.116;2023-08-06T03:28:41;97006.09;;;17.54;75.22
13553;BME280;6847;48.830;9.116;2023-08-06T03:31:08;96997.66;;;17.59;74.92
13553;BME280;6847;48.830;9.116;2023-08-06T03:33:35;96949.59;;;17.21;74.87
13553;BME280;6847;48.830;9.116;2023-08-06T03:36:01;97002.56;;;17.65;75.33
13553;BME280;6847;48.830;9.116;2023-08-06T03:38:32;97008.16;;;17.69;75.33
13553;BME280;6847;48.830;9.116;2023-08-06T03:40:59;97003.69;;;17.77;75.44
13553;BME280;6847;48.830;9.116;2023-08-06T03:43:27;97002.22;;;17.79;75.33
13553;BME280;6847;48.830;9.116;2023-08-06T03:45:54;97001.16;;;17.84;75.17
13553;BME280;6847;48.830;9.116;2023-08-06T03:48:25;97004.03;;;17.87;75.01
13553;BME280;6847;48.830;9.116;2023-08-06T03:50:56;97000.94;;;17.89;75.77
13553;BME280;6847;48.830;9.116;2023-08-06T03:53:23;97004.94;;;17.91;75.51
13553;BME280;6847;48.830;9.116;2023-08-06T03:55:53;97001.94;;;17.96;75.35
13553;BME280;6847;48.830;9.116;2023-08-06T03:58:21;96970.97;;;17.80;75.25
13553;BME280;6847;48.830;9.116;2023-08-06T04:00:59;97004.66;;;18.08;75.54
13553;BME280;6847;48.830;9.116;2023-08-06T04:03:26;97003.84;;;18.08;75.23
13553;BME280;6847;48.830;9.116;2023-08-06T04:05:53;97003.97;;;18.11;75.06
13553;BME280;6847;48.830;9.116;2023-08-06T04:08:20;97012.31;;;18.03;75.07
13553;BME280;6847;48.830;9.116;2023-08-06T04:10:50;97024.78;;;18.00;75.53
13553;BME280;6847;48.830;9.116;2023-08-06T04:13:17;97013.69;;;17.97;75.55
13553;BME280;6847;48.830;9.116;2023-08-06T04:15:45;97022.25;;;17.95;75.03
13553;BME280;6847;48.830;9.116;2023-08-06T04:18:12;97019.06;;;17.93;75.24
13553;BME280;6847;48.830;9.116;2023-08-06T04:20:45;97023.75;;;17.93;74.88
13553;BME280;6847;48.830;9.116;2023-08-06T04:23:11;97028.66;;;17.87;75.20
13553;BME280;6847;48.830;9.116;2023-08-06T04:25:43;96965.41;;;17.40;74.84
13553;BME280;6847;48.830;9.116;2023-08-06T04:28:17;96855.38;;;16.70;75.19
13553;BME280;6847;48.830;9.116;2023-08-06T04:30:43;97033.94;;;17.80;74.92
13553;BME280;6847;48.830;9.116;2023-08-06T04:33:11;97031.28;;;17.84;75.07
13553;BME280;6847;48.830;9.116;2023-08-06T04:35:41;97019.53;;;17.83;75.00
13553;BME280;6847;48.830;9.116;2023-08-06T04:38:08;97002.69;;;17.81;75.22
13553;BME280;6847;48.830;9.116;2023-08-06T04:40:36;97003.81;;;17.80;74.96
13553;BME280;6847;48.830;9.116;2023-08-06T04:43:05;97017.16;;;17.82;75.33
13553;BME280;6847;48.830;9.116;2023-08-06T04:45:34;97016.78;;;17.83;75.30
13553;BME280;6847;48.830;9.116;2023-08-06T04:48:01;96967.81;;;17.42;75.01
13553;BME280;6847;48.830;9.116;2023-08-06T04:50:28;97032.09;;;17.84;75.00
13553;BME280;6847;48.830;9.116;2023-08-06T04:52:55;97028.34;;;17.77;74.96
13553;BME280;6847;48.830;9.116;2023-08-06T04:55:29;96964.84;;;17.34;74.73
13553;BME280;6847;48.830;9.116;2023-08-06T04:57:56;97036.69;;;17.80;74.76
13553;BME280;6847;48.830;9.116;2023-08-06T05:00:24;97028.66;;;17.87;75.18
13553;BME280;6847;48.830;9.116;2023-08-06T05:02:54;96949.69;;;17.37;74.82
13553;BME280;6847;48.830;9.116;2023-08-06T05:05:24;97002.91;;;17.76;74.59
13553;BME280;6847;48.830;9.116;2023-08-06T05:07:57;96800.69;;;16.58;74.85
13553;BME280;6847;48.830;9.116;2023-08-06T05:10:25;96904.56;;;17.19;74.53
13553;BME280;6847;48.830;9.116;2023-08-06T05:12:51;96880.28;;;17.17;74.59
13553;BME280;6847;48.830;9.116;2023-08-06T05:15:23;97037.97;;;18.10;74.74
13553;BME280;6847;48.830;9.116;2023-08-06T05:17:55;97030.19;;;18.12;74.60
13553;BME280;6847;48.830;9.116;2023-08-06T05:20:22;97005.34;;;18.05;74.48
13553;BME280;6847;48.830;9.116;2023-08-06T05:22:48;97029.47;;;18.28;74.55
13553;BME280;6847;48.830;9.116;2023-08-06T05:25:16;97027.84;;;18.39;74.49
13553;BME280;6847;48.830;9.116;2023-08-06T05:27:45;97022.28;;;18.51;74.78
13553;BME280;6847;48.830;9.116;2023-08-06T05:30:11;97027.06;;;18.66;74.71
13553;BME280;6847;48.830;9.116;2023-08-06T05:32:39;97024.66;;;18.80;74.56
13553;BME280;6847;48.830;9.116;2023-08-06T05:35:09;97017.81;;;18.87;74.85
13553;BME280;6847;48.830;9.116;2023-08-06T05:37:37;96996.47;;;18.80;74.63
13553;BME280;6847;48.830;9.116;2023-08-06T05:40:04;97038.72;;;19.07;74.27
13553;BME280;6847;48.830;9.116;2023-08-06T05:42:31;97037.72;;;18.99;74.69
13553;BME280;6847;48.830;9.116;2023-08-06T05:45:00;97040.81;;;18.98;74.83
13553;BME280;6847;48.830;9.116;2023-08-06T05:47:28;97038.94;;;19.02;74.62
13553;BME280;6847;48.830;9.116;2023-08-06T05:49:57;97044.78;;;19.00;74.85
13553;BME280;6847;48.830;9.116;2023-08-06T05:52:28;97042.56;;;18.90;74.46
13553;BME280;6847;48.830;9.116;2023-08-06T05:54:55;97049.81;;;18.82;74.77
13553;BME280;6847;48.830;9.116;2023-08-06T05:57:21;97043.44;;;18.78;74.46
13553;BME280;6847;48.830;9.116;2023-08-06T05:59:48;97048.22;;;18.81;74.83
13553;BME280;6847;48.830;9.116;2023-08-06T06:02:14;97052.09;;;18.80;74.54
13553;BME280;6847;48.830;9.116;2023-08-06T06:04:41;97051.31;;;18.80;74.51
13553;BME280;6847;48.830;9.116;2023-08-06T06:07:08;97056.44;;;18.81;74.64
13553;BME280;6847;48.830;9.116;2023-08-06T06:09:36;97055.09;;;18.75;74.78
13553;BME280;6847;48.830;9.116;2023-08-06T06:12:06;97025.97;;;18.43;74.41
13553;BME280;6847;48.830;9.116;2023-08-06T06:14:34;96755.97;;;16.50;73.94
13553;BME280;6847;48.830;9.116;2023-08-06T06:17:06;97056.31;;;18.22;74.67
13553;BME280;6847;48.830;9.116;2023-08-06T06:19:35;96994.94;;;17.71;74.65
13553;BME280;6847;48.830;9.116;2023-08-06T06:22:03;96865.28;;;16.75;74.89
13553;BME280;6847;48.830;9.116;2023-08-06T06:24:32;97025.41;;;17.69;74.76
13553;BME280;6847;48.830;9.116;2023-08-06T06:27:02;97068.81;;;17.95;75.28
13553;BME280;6847;48.830;9.116;2023-08-06T06:29:31;97070.88;;;17.98;75.23
13553;BME280;6847;48.830;9.116;2023-08-06T06:31:58;97074.06;;;18.00;75.19
13553;BME280;6847;48.830;9.116;2023-08-06T06:34:27;97045.09;;;17.75;75.47
13553;BME280;6847;48.830;9.116;2023-08-06T06:36:54;97046.03;;;17.67;75.05
13553;BME280;6847;48.830;9.116;2023-08-06T06:39:22;97073.03;;;17.93;75.46
13553;BME280;6847;48.830;9.116;2023-08-06T06:41:48;97073.94;;;17.97;75.68
13553;BME280;6847;48.830;9.116;2023-08-06T06:44:16;97070.41;;;18.08;75.67
13553;BME280;6847;48.830;9.116;2023-08-06T06:46:45;97064.47;;;18.06;75.43
13553;BME280;6847;48.830;9.116;2023-08-06T06:49:13;97079.97;;;18.15;75.73
13553;BME280;6847;48.830;9.116;2023-08-06T06:51:41;97073.59;;;18.10;75.73
13553;BME280;6847;48.830;9.116;2023-08-06T06:54:07;97079.88;;;18.11;75.67
13553;BME280;6847;48.830;9.116;2023-08-06T06:56:35;97078.34;;;18.13;75.67
13553;BME280;6847;48.830;9.116;2023-08-06T06:59:04;97075.19;;;18.11;75.75
13553;BME280;6847;48.830;9.116;2023-08-06T07:01:34;97078.81;;;18.16;75.42
13553;BME280;6847;48.830;9.116;2023-08-06T07:04:12;97066.72;;;18.17;75.69
13553;BME280;6847;48.830;9.116;2023-08-06T07:06:38;97080.16;;;18.22;75.35
13553;BME280;6847;48.830;9.116;2023-08-06T07:09:05;97080.16;;;18.22;75.14
13553;BME280;6847;48.830;9.116;2023-08-06T07:11:33;97076.28;;;18.23;75.30
13553;BME280;6847;48.830;9.116;2023-08-06T07:14:00;97088.16;;;18.27;75.34
13553;BME280;6847;48.830;9.116;2023-08-06T07:16:28;96963.91;;;17.55;75.25
13553;BME280;6847;48.830;9.116;2023-08-06T07:19:01;96957.28;;;17.44;75.00
13553;BME280;6847;48.830;9.116;2023-08-06T07:21:29;97085.88;;;18.29;74.77
13553;BME280;6847;48.830;9.116;2023-08-06T07:23:56;97084.97;;;18.25;75.04
13553;BME280;6847;48.830;9.116;2023-08-06T07:26:22;96878.50;;;16.73;74.47
13553;BME280;6847;48.830;9.116;2023-08-06T07:28:51;97089.09;;;18.19;74.97
13553;BME280;6847;48.830;9.116;2023-08-06T07:31:18;96990.84;;;17.53;74.34
13553;BME280;6847;48.830;9.116;2023-08-06T07:33:44;97028.81;;;17.79;74.88
13553;BME280;6847;48.830;9.116;2023-08-06T07:36:13;97080.66;;;18.11;74.73
13553;BME280;6847;48.830;9.116;2023-08-06T07:38:41;97094.78;;;18.26;74.60
13553;BME280;6847;48.830;9.116;2023-08-06T07:41:15;97098.50;;;18.33;74.74
13553;BME280;6847;48.830;9.116;2023-08-06T07:43:47;97003.81;;;17.80;74.54
13553;BME280;6847;48.830;9.116;2023-08-06T07:46:14;97097.94;;;18.40;74.50
13553;BME280;6847;48.830;9.116;2023-08-06T07:48:41;97096.22;;;18.35;74.53
13553;BME280;6847;48.830;9.116;2023-08-06T07:51:08;97006.78;;;17.75;74.07
13553;BME280;6847;48.830;9.116;2023-08-06T07:53:38;97086.34;;;18.19;74.72
13553;BME280;6847;48.830;9.116;2023-08-06T07:56:05;97088.63;;;18.17;74.33
13553;BME280;6847;48.830;9.116;2023-08-06T07:58:33;97087.25;;;18.23;74.85
13553;BME280;6847;48.830;9.116;2023-08-06T08:01:02;97083.59;;;18.31;74.62
13553;BME280;6847;48.830;9.116;2023-08-06T08:03:29;97084.91;;;18.49;74.72
13553;BME280;6847;48.830;9.116;2023-08-06T08:05:56;97091.09;;;18.74;74.30
13553;BME280;6847;48.830;9.116;2023-08-06T08:08:25;97084.25;;;18.96;73.93
13553;BME280;6847;48.830;9.116;2023-08-06T08:10:57;97082.16;;;19.20;73.55
13553;BME280;6847;48.830;9.116;2023-08-06T08:13:25;97085.78;;;19.40;73.69
13553;BME280;6847;48.830;9.116;2023-08-06T08:15:57;97088.59;;;19.56;73.55
13553;BME280;6847;48.830;9.116;2023-08-06T08:18:23;97088.19;;;19.89;73.17
13553;BME280;6847;48.830;9.116;2023-08-06T08:20:50;97085.72;;;20.35;72.73
13553;BME280;6847;48.830;9.116;2023-08-06T08:23:19;97094.13;;;20.61;72.19
13553;BME280;6847;48.830;9.116;2023-08-06T08:25:46;97087.38;;;20.78;72.04
13553;BME280;6847;48.830;9.116;2023-08-06T08:28:17;97089.69;;;20.95;71.92
13553;BME280;6847;48.830;9.116;2023-08-06T08:30:50;97007.94;;;20.53;71.93
13553;BME280;6847;48.830;9.116;2023-08-06T08:33:20;96881.56;;;19.61;71.93
13553;BME280;6847;48.830;9.116;2023-08-06T08:35:50;97013.66;;;20.45;71.81
13553;BME280;6847;48.830;9.116;2023-08-06T08:38:25;96946.34;;;20.19;71.81
13553;BME280;6847;48.830;9.116;2023-08-06T08:40:55;97085.94;;;21.26;71.40
13553;BME280;6847;48.830;9.116;2023-08-06T08:43:24;97085.53;;;21.24;71.47
13553;BME280;6847;48.830;9.116;2023-08-06T08:45:56;97055.03;;;21.13;71.46
13553;BME280;6847;48.830;9.116;2023-08-06T08:48:24;97079.22;;;21.46;71.27
13553;BME280;6847;48.830;9.116;2023-08-06T08:50:53;97086.94;;;21.37;71.15
13553;BME280;6847;48.830;9.116;2023-08-06T08:53:23;97060.94;;;20.92;71.35
13553;BME280;6847;48.830;9.116;2023-08-06T08:55:50;97091.50;;;20.87;71.80
13553;BME280;6847;48.830;9.116;2023-08-06T08:58:17;97004.78;;;19.97;71.73
13553;BME280;6847;48.830;9.116;2023-08-06T09:00:46;97091.50;;;20.14;71.69
13553;BME280;6847;48.830;9.116;2023-08-06T09:03:13;97089.63;;;19.83;72.00
13553;BME280;6847;48.830;9.116;2023-08-06T09:05:44;97069.88;;;19.62;72.63
13553;BME280;6847;48.830;9.116;2023-08-06T09:08:24;97083.50;;;19.42;73.08
13553;BME280;6847;48.830;9.116;2023-08-06T09:10:54;97084.94;;;19.36;72.74
13553;BME280;6847;48.830;9.116;2023-08-06T09:13:22;97069.44;;;19.28;72.82
13553;BME280;6847;48.830;9.116;2023-08-06T09:15:52;97090.44;;;19.52;72.79
13553;BME280;6847;48.830;9.116;2023-08-06T09:18:25;97101.59;;;19.75;72.58
13553;BME280;6847;48.830;9.116;2023-08-06T09:20:53;97094.13;;;19.91;72.36
13553;BME280;6847;48.830;9.116;2023-08-06T09:23:19;97103.97;;;19.92;71.95
13553;BME280;6847;48.830;9.116;2023-08-06T09:25:47;97105.41;;;19.86;71.96
13553;BME280;6847;48.830;9.116;2023-08-06T09:28:17;96932.72;;;18.55;72.15
13553;BME280;6847;48.830;9.116;2023-08-06T09:30:47;96994.09;;;18.78;72.49
13553;BME280;6847;48.830;9.116;2023-08-06T09:33:17;97063.56;;;19.14;72.65
13553;BME280;6847;48.830;9.116;2023-08-06T09:35:46;97117.25;;;19.43;72.97
13553;BME280;6847;48.830;9.116;2023-08-06T09:38:13;97105.75;;;19.37;72.85
13553;BME280;6847;48.830;9.116;2023-08-06T09:40:40;97117.69;;;19.29;73.11
13553;BME280;6847;48.830;9.116;2023-08-06T09:43:07;97118.19;;;19.19;72.96
13553;BME280;6847;48.830;9.116;2023-08-06T09:45:34;97116.50;;;19.14;73.12
13553;BME280;6847;48.830;9.116;2023-08-06T09:48:03;97100.22;;;19.06;72.88
13553;BME280;6847;48.830;9.116;2023-08-06T09:50:33;97115.69;;;19.14;73.28
13553;BME280;6847;48.830;9.116;2023-08-06T09:53:02;97100.94;;;19.18;73.20
13553;BME280;6847;48.830;9.116;2023-08-06T09:55:41;97109.69;;;19.24;72.96
13553;BME280;6847;48.830;9.116;2023-08-06T09:58:08;97104.56;;;19.22;72.81
13553;BME280;6847;48.830;9.116;2023-08-06T10:00:35;96870.38;;;17.65;72.69
13553;BME280;6847;48.830;9.116;2023-08-06T10:03:07;97113.06;;;19.33;72.78
13553;BME280;6847;48.830;9.116;2023-08-06T10:05:37;96959.84;;;18.29;72.51
13553;BME280;6847;48.830;9.116;2023-08-06T10:08:06;97039.09;;;18.77;72.66
13553;BME280;6847;48.830;9.116;2023-08-06T10:10:33;97121.47;;;19.40;72.79
13553;BME280;6847;48.830;9.116;2023-08-06T10:13:01;96959.41;;;18.70;72.36
13553;BME280;6847;48.830;9.116;2023-08-06T10:15:32;97124.25;;;20.03;71.91
13553;BME280;6847;48.830;9.116;2023-08-06T10:18:02;97126.88;;;20.15;71.63
13553;BME280;6847;48.830;9.116;2023-08-06T10:20:33;97100.06;;;19.93;71.54
13553;BME280;6847;48.830;9.116;2023-08-06T10:23:06;96960.09;;;18.67;71.59
13553;BME280;6847;48.830;9.116;2023-08-06T10:25:36;97153.69;;;19.87;71.98
13553;BME280;6847;48.830;9.116;2023-08-06T10:28:09;97145.25;;;19.95;71.85
13553;BME280;6847;48.830;9.116;2023-08-06T10:30:42;97137.19;;;20.03;71.56
13553;BME280;6847;48.830;9.116;2023-08-06T10:33:10;97129.88;;;20.10;71.63
13553;BME280;6847;48.830;9.116;2023-08-06T10:35:41;97131.97;;;20.32;71.35
13553;BME280;6847;48.830;9.116;2023-08-06T10:38:17;97115.75;;;20.43;70.95
13553;BME280;6847;48.830;9.116;2023-08-06T10:41:00;97084.41;;;20.48;70.74
13553;BME280;6847;48.830;9.116;2023-08-06T10:43:28;97135.00;;;21.01;70.55
13553;BME280;6847;48.830;9.116;2023-08-06T10:46:01;97122.47;;;21.03;70.23
13553;BME280;6847;48.830;9.116;2023-08-06T10:48:33;97097.16;;;20.75;70.19
13553;BME280;6847;48.830;9.116;2023-08-06T10:51:01;97144.41;;;21.00;70.32
13553;BME280;6847;48.830;9.116;2023-08-06T10:53:30;97143.84;;;20.91;70.51
13553;BME280;6847;48.830;9.116;2023-08-06T10:55:58;97073.34;;;20.09;70.34
13553;BME280;6847;48.830;9.116;2023-08-06T10:58:25;97029.78;;;19.57;70.41
13553;BME280;6847;48.830;9.116;2023-08-06T11:01:06;97159.25;;;20.06;70.45
13553;BME280;6847;48.830;9.116;2023-08-06T11:03:38;97127.38;;;19.54;70.75
13553;BME280;6847;48.830;9.116;2023-08-06T11:06:16;96901.16;;;17.74;70.87
13553;BME280;6847;48.830;9.116;2023-08-06T11:08:49;97146.34;;;19.16;71.62
13553;BME280;6847;48.830;9.116;2023-08-06T11:11:17;97174.34;;;19.37;71.74
13553;BME280;6847;48.830;9.116;2023-08-06T11:13:45;97141.84;;;19.39;71.46
13553;BME280;6847;48.830;9.116;2023-08-06T11:16:13;97178.56;;;19.78;70.98
13553;BME280;6847;48.830;9.116;2023-08-06T11:18:41;97176.00;;;19.70;70.70
13553;BME280;6847;48.830;9.116;2023-08-06T11:21:10;96990.84;;;18.33;70.22
13553;BME280;6847;48.830;9.116;2023-08-06T11:23:38;97198.09;;;19.45;70.46
13553;BME280;6847;48.830;9.116;2023-08-06T11:26:09;97196.50;;;19.44;70.42
13553;BME280;6847;48.830;9.116;2023-08-06T11:28:35;97160.88;;;19.32;70.33
13553;BME280;6847;48.830;9.116;2023-08-06T11:31:02;97023.44;;;18.50;70.25
13553;BME280;6847;48.830;9.116;2023-08-06T11:33:29;97188.56;;;19.71;70.24
13553;BME280;6847;48.830;9.116;2023-08-06T11:35:57;97042.84;;;18.85;70.01
13553;BME280;6847;48.830;9.116;2023-08-06T11:38:25;97203.84;;;19.84;70.10
13553;BME280;6847;48.830;9.116;2023-08-06T11:40:52;97078.22;;;18.90;69.88
13553;BME280;6847;48.830;9.116;2023-08-06T11:43:24;97143.84;;;19.11;69.66
13553;BME280;6847;48.830;9.116;2023-08-06T11:45:51;97136.13;;;18.73;70.13
13553;BME280;6847;48.830;9.116;2023-08-06T11:48:22;97106.75;;;18.33;70.06
13553;BME280;6847;48.830;9.116;2023-08-06T11:50:56;97218.47;;;18.89;70.15
13553;BME280;6847;48.830;9.116;2023-08-06T11:53:30;97221.78;;;18.82;70.50
13553;BME280;6847;48.830;9.116;2023-08-06T11:56:01;97222.63;;;18.70;70.54
13553;BME280;6847;48.830;9.116;2023-08-06T11:58:32;97193.19;;;18.31;70.55
13553;BME280;6847;48.830;9.116;2023-08-06T12:01:01;97164.19;;;17.93;70.85
13553;BME280;6847;48.830;9.116;2023-08-06T12:03:31;97208.97;;;18.09;71.28
13553;BME280;6847;48.830;9.116;2023-08-06T12:06:02;96958.53;;;16.28;71.64
13553;BME280;6847;48.830;9.116;2023-08-06T12:08:33;97243.38;;;17.86;71.48
13553;BME280;6847;48.830;9.116;2023-08-06T12:11:00;97186.13;;;17.36;72.22
13553;BME280;6847;48.830;9.116;2023-08-06T12:13:27;97247.88;;;17.58;72.18
13553;BME280;6847;48.830;9.116;2023-08-06T12:15:58;97242.81;;;17.48;72.64
13553;BME280;6847;48.830;9.116;2023-08-06T12:18:28;97092.69;;;16.47;72.91
13553;BME280;6847;48.830;9.116;2023-08-06T12:20:55;97258.81;;;17.58;72.86
13553;BME280;6847;48.830;9.116;2023-08-06T12:23:35;97263.47;;;17.78;72.82
13553;BME280;6847;48.830;9.116;2023-08-06T12:26:02;97260.63;;;17.87;73.22
13553;BME280;6847;48.830;9.116;2023-08-06T12:28:33;97252.53;;;18.02;73.71
13553;BME280;6847;48.830;9.116;2023-08-06T12:31:05;97191.53;;;17.57;73.61
13553;BME280;6847;48.830;9.116;2023-08-06T12:33:36;96949.44;;;16.36;73.22
13553;BME280;6847;48.830;9.116;2023-08-06T12:45:52;97097.28;;;18.99;72.36
13553;BME280;6847;48.830;9.116;2023-08-06T12:48:27;97113.81;;;19.77;71.64
13553;BME280;6847;48.830;9.116;2023-08-06T12:51:41;97268.97;;;20.97;70.94
13553;BME280;6847;48.830;9.116;2023-08-06T12:54:57;97286.78;;;21.38;70.42
13553;BME280;6847;48.830;9.116;2023-08-06T12:57:29;97279.25;;;21.54;70.21
13553;BME280;6847;48.830;9.116;2023-08-06T13:00:11;97284.91;;;21.61;70.22
13553;BME280;6847;48.830;9.116;2023-08-06T13:02:38;97294.47;;;21.67;69.79
13553;BME280;6847;48.830;9.116;2023-08-06T13:05:06;97292.13;;;21.69;69.64
13553;BME280;6847;48.830;9.116;2023-08-06T13:07:34;97273.53;;;21.86;69.56
13553;BME280;6847;48.830;9.116;2023-08-06T13:10:00;97284.88;;;22.00;69.01
13553;BME280;6847;48.830;9.116;2023-08-06T13:12:27;97289.78;;;22.10;68.75
13553;BME280;6847;48.830;9.116;2023-08-06T13:14:53;97131.31;;;21.13;68.36
13553;BME280;6847;48.830;9.116;2023-08-06T13:17:23;97291.31;;;22.07;68.67
13553;BME280;6847;48.830;9.116;2023-08-06T13:19:53;97288.31;;;21.97;68.47
13553;BME280;6847;48.830;9.116;2023-08-06T13:22:21;97275.16;;;21.67;68.27
13553;BME280;6847;48.830;9.116;2023-08-06T13:24:47;97296.78;;;21.65;68.52
13553;BME280;6847;48.830;9.116;2023-08-06T13:27:18;97312.59;;;21.68;68.33
13553;BME280;6847;48.830;9.116;2023-08-06T13:29:44;97307.00;;;21.65;67.95
13553;BME280;6847;48.830;9.116;2023-08-06T13:32:13;97303.88;;;21.66;67.70